sensor_id;sensor_type;location;lat;lon;timestamp;P1;durP1;ratioP1;P2;durP2;ratioP2
78873;SDS011;68250;43.514;1.494;2023-07-20T00:01:14;11.55;;;4.75;;
78873;SDS011;68250;43.514;1.494;2023-07-20T00:03:40;11.93;;;4.97;;
78873;SDS011;68250;43.514;1.494;2023-07-20T00:06:06;12.65;;;4.88;;
78873;SDS011;68250;43.514;1.494;2023-07-20T00:08:31;12.10;;;4.30;;
78873;SDS011;68250;43.514;1.494;2023-07-20T00:10:57;13.45;;;4.15;;
78873;SDS011;68250;43.514;1.494;2023-07-20T00:13:23;9.90;;;4.57;;
78873;SDS011;68250;43.514;1.494;2023-07-20T00:15:49;12.43;;;4.70;;
78873;SDS011;68250;43.514;1.494;2023-07-20T00:18:14;10.10;;;4.80;;
78873;SDS011;68250;43.514;1.494;2023-07-20T00:20:40;9.17;;;4.67;;
78873;SDS011;68250;43.514;1.494;2023-07-20T00:23:06;11.68;;;4.97;;
78873;SDS011;68250;43.514;1.494;2023-07-20T00:25:31;8.70;;;4.60;;
78873;SDS011;68250;43.514;1.494;2023-07-20T00:27:58;10.40;;;4.68;;
78873;SDS011;68250;43.514;1.494;2023-07-20T00:30:24;10.43;;;4.53;;
78873;SDS011;68250;43.514;1.494;2023-07-20T00:32:49;10.88;;;4.68;;
78873;SDS011;68250;43.514;1.494;2023-07-20T00:35:15;11.50;;;4.60;;
78873;SDS011;68250;43.514;1.494;2023-07-20T00:37:40;11.65;;;4.70;;
78873;SDS011;68250;43.514;1.494;2023-07-20T00:40:06;12.40;;;4.63;;
78873;SDS011;68250;43.514;1.494;2023-07-20T00:42:35;8.48;;;4.68;;
78873;SDS011;68250;43.514;1.494;2023-07-20T00:45:01;13.98;;;4.82;;
78873;SDS011;68250;43.514;1.494;2023-07-20T00:47:26;10.97;;;4.60;;
78873;SDS011;68250;43.514;1.494;2023-07-20T00:49:53;9.85;;;4.63;;
78873;SDS011;68250;43.514;1.494;2023-07-20T00:52:20;10.30;;;5.05;;
78873;SDS011;68250;43.514;1.494;2023-07-20T00:54:47;14.05;;;5.32;;
78873;SDS011;68250;43.514;1.494;2023-07-20T00:57:16;12.57;;;4.83;;
78873;SDS011;68250;43.514;1.494;2023-07-20T00:59:42;12.98;;;4.80;;
78873;SDS011;68250;43.514;1.494;2023-07-20T01:02:08;10.82;;;4.43;;
78873;SDS011;68250;43.514;1.494;2023-07-20T01:04:34;9.23;;;4.70;;
78873;SDS011;68250;43.514;1.494;2023-07-20T01:12:58;12.80;;;4.87;;
78873;SDS011;68250;43.514;1.494;2023-07-20T01:15:25;9.88;;;4.50;;
78873;SDS011;68250;43.514;1.494;2023-07-20T01:17:51;10.80;;;5.07;;
78873;SDS011;68250;43.514;1.494;2023-07-20T01:20:18;11.63;;;4.57;;
78873;SDS011;68250;43.514;1.494;2023-07-20T01:31:20;9.73;;;4.57;;
78873;SDS011;68250;43.514;1.494;2023-07-20T01:33:47;8.85;;;4.28;;
78873;SDS011;68250;43.514;1.494;2023-07-20T01:36:14;9.57;;;4.65;;
78873;SDS011;68250;43.514;1.494;2023-07-20T01:38:42;8.82;;;4.13;;
78873;SDS011;68250;43.514;1.494;2023-07-20T01:41:08;9.43;;;4.60;;
78873;SDS011;68250;43.514;1.494;2023-07-20T01:43:33;9.75;;;4.70;;
78873;SDS011;68250;43.514;1.494;2023-07-20T01:45:59;9.60;;;4.53;;
78873;SDS011;68250;43.514;1.494;2023-07-20T01:48:25;10.07;;;4.32;;
78873;SDS011;68250;43.514;1.494;2023-07-20T01:50:52;8.97;;;4.20;;
78873;SDS011;68250;43.514;1.494;2023-07-20T01:53:17;10.82;;;4.65;;
78873;SDS011;68250;43.514;1.494;2023-07-20T01:55:43;10.63;;;4.70;;
78873;SDS011;68250;43.514;1.494;2023-07-20T02:01:00;9.53;;;4.27;;
78873;SDS011;68250;43.514;1.494;2023-07-20T02:03:26;9.18;;;4.72;;
78873;SDS011;68250;43.514;1.494;2023-07-20T02:05:52;9.43;;;4.10;;
78873;SDS011;68250;43.514;1.494;2023-07-20T02:08:18;9.53;;;4.47;;
78873;SDS011;68250;43.514;1.494;2023-07-20T02:10:47;9.27;;;4.63;;
78873;SDS011;68250;43.514;1.494;2023-07-20T02:13:13;10.90;;;4.80;;
78873;SDS011;68250;43.514;1.494;2023-07-20T02:15:38;10.23;;;4.40;;
78873;SDS011;68250;43.514;1.494;2023-07-20T02:18:04;8.00;;;4.20;;
78873;SDS011;68250;43.514;1.494;2023-07-20T02:20:29;11.10;;;4.25;;
78873;SDS011;68250;43.514;1.494;2023-07-20T02:22:55;8.23;;;4.27;;
78873;SDS011;68250;43.514;1.494;2023-07-20T02:25:21;9.73;;;4.07;;
78873;SDS011;68250;43.514;1.494;2023-07-20T02:27:46;9.55;;;4.50;;
78873;SDS011;68250;43.514;1.494;2023-07-20T02:30:12;10.20;;;4.40;;
78873;SDS011;68250;43.514;1.494;2023-07-20T02:32:38;9.48;;;4.53;;
78873;SDS011;68250;43.514;1.494;2023-07-20T02:35:04;9.48;;;4.78;;
78873;SDS011;68250;43.514;1.494;2023-07-20T02:37:31;10.07;;;4.35;;
78873;SDS011;68250;43.514;1.494;2023-07-20T02:39:57;10.30;;;4.17;;
78873;SDS011;68250;43.514;1.494;2023-07-20T02:42:23;8.85;;;4.50;;
78873;SDS011;68250;43.514;1.494;2023-07-20T02:44:51;8.20;;;4.47;;
78873;SDS011;68250;43.514;1.494;2023-07-20T02:47:16;10.27;;;4.63;;
78873;SDS011;68250;43.514;1.494;2023-07-20T02:49:42;8.40;;;4.38;;
78873;SDS011;68250;43.514;1.494;2023-07-20T02:52:08;8.57;;;4.77;;
78873;SDS011;68250;43.514;1.494;2023-07-20T02:54:34;12.07;;;4.30;;
78873;SDS011;68250;43.514;1.494;2023-07-20T02:57:00;8.33;;;4.10;;
78873;SDS011;68250;43.514;1.494;2023-07-20T02:59:26;8.05;;;4.50;;
78873;SDS011;68250;43.514;1.494;2023-07-20T03:01:52;9.02;;;4.60;;
78873;SDS011;68250;43.514;1.494;2023-07-20T03:04:19;11.40;;;4.60;;
78873;SDS011;68250;43.514;1.494;2023-07-20T03:06:44;7.80;;;4.78;;
78873;SDS011;68250;43.514;1.494;2023-07-20T03:09:10;9.93;;;4.70;;
78873;SDS011;68250;43.514;1.494;2023-07-20T03:11:36;9.77;;;4.78;;
78873;SDS011;68250;43.514;1.494;2023-07-20T03:14:02;11.40;;;5.22;;
78873;SDS011;68250;43.514;1.494;2023-07-20T03:16:27;9.13;;;4.40;;
78873;SDS011;68250;43.514;1.494;2023-07-20T03:18:53;12.67;;;4.63;;
78873;SDS011;68250;43.514;1.494;2023-07-20T03:21:18;8.90;;;4.40;;
78873;SDS011;68250;43.514;1.494;2023-07-20T03:23:44;9.83;;;4.73;;
78873;SDS011;68250;43.514;1.494;2023-07-20T03:26:10;10.07;;;4.53;;
78873;SDS011;68250;43.514;1.494;2023-07-20T03:28:36;9.55;;;4.07;;
78873;SDS011;68250;43.514;1.494;2023-07-20T03:31:03;9.63;;;4.50;;
78873;SDS011;68250;43.514;1.494;2023-07-20T03:33:29;9.55;;;4.50;;
78873;SDS011;68250;43.514;1.494;2023-07-20T03:35:55;10.07;;;4.82;;
78873;SDS011;68250;43.514;1.494;2023-07-20T03:38:21;11.27;;;4.45;;
78873;SDS011;68250;43.514;1.494;2023-07-20T03:40:51;11.53;;;4.70;;
78873;SDS011;68250;43.514;1.494;2023-07-20T03:43:17;10.88;;;4.63;;
78873;SDS011;68250;43.514;1.494;2023-07-20T03:45:43;10.50;;;4.82;;
78873;SDS011;68250;43.514;1.494;2023-07-20T03:48:09;10.35;;;4.38;;
78873;SDS011;68250;43.514;1.494;2023-07-20T03:50:35;12.23;;;4.50;;
78873;SDS011;68250;43.514;1.494;2023-07-20T03:53:00;9.43;;;4.43;;
78873;SDS011;68250;43.514;1.494;2023-07-20T03:55:26;7.85;;;3.83;;
78873;SDS011;68250;43.514;1.494;2023-07-20T03:57:51;9.50;;;4.87;;
78873;SDS011;68250;43.514;1.494;2023-07-20T04:00:17;8.93;;;4.05;;
78873;SDS011;68250;43.514;1.494;2023-07-20T04:02:43;9.43;;;4.40;;
78873;SDS011;68250;43.514;1.494;2023-07-20T04:05:09;11.00;;;4.80;;
78873;SDS011;68250;43.514;1.494;2023-07-20T04:07:34;8.90;;;4.53;;
78873;SDS011;68250;43.514;1.494;2023-07-20T04:10:00;8.95;;;4.47;;
78873;SDS011;68250;43.514;1.494;2023-07-20T04:12:25;10.03;;;4.57;;
78873;SDS011;68250;43.514;1.494;2023-07-20T04:14:51;12.73;;;4.80;;
78873;SDS011;68250;43.514;1.494;2023-07-20T04:17:17;7.83;;;4.80;;
78873;SDS011;68250;43.514;1.494;2023-07-20T04:19:43;10.02;;;5.00;;
78873;SDS011;68250;43.514;1.494;2023-07-20T04:22:09;12.00;;;4.60;;
78873;SDS011;68250;43.514;1.494;2023-07-20T04:24:34;8.95;;;4.47;;
78873;SDS011;68250;43.514;1.494;2023-07-20T04:27:00;10.13;;;5.33;;
78873;SDS011;68250;43.514;1.494;2023-07-20T04:29:26;10.13;;;5.00;;
78873;SDS011;68250;43.514;1.494;2023-07-20T04:31:51;9.73;;;4.87;;
78873;SDS011;68250;43.514;1.494;2023-07-20T04:34:17;10.07;;;4.82;;
78873;SDS011;68250;43.514;1.494;2023-07-20T04:36:42;9.77;;;4.90;;
78873;SDS011;68250;43.514;1.494;2023-07-20T04:39:09;9.10;;;4.63;;
78873;SDS011;68250;43.514;1.494;2023-07-20T04:41:35;9.63;;;5.22;;
78873;SDS011;68250;43.514;1.494;2023-07-20T04:44:00;9.95;;;4.97;;
78873;SDS011;68250;43.514;1.494;2023-07-20T04:46:26;8.10;;;4.80;;
78873;SDS011;68250;43.514;1.494;2023-07-20T04:48:52;10.07;;;4.90;;
78873;SDS011;68250;43.514;1.494;2023-07-20T04:51:18;8.93;;;4.67;;
78873;SDS011;68250;43.514;1.494;2023-07-20T04:53:48;10.05;;;5.13;;
78873;SDS011;68250;43.514;1.494;2023-07-20T04:56:14;9.57;;;4.78;;
78873;SDS011;68250;43.514;1.494;2023-07-20T04:58:40;9.83;;;4.70;;
78873;SDS011;68250;43.514;1.494;2023-07-20T05:01:05;10.05;;;4.68;;
78873;SDS011;68250;43.514;1.494;2023-07-20T05:03:31;10.33;;;4.87;;
78873;SDS011;68250;43.514;1.494;2023-07-20T05:05:57;8.82;;;4.97;;
78873;SDS011;68250;43.514;1.494;2023-07-20T05:08:23;9.70;;;4.67;;
78873;SDS011;68250;43.514;1.494;2023-07-20T05:10:48;10.30;;;5.15;;
78873;SDS011;68250;43.514;1.494;2023-07-20T05:13:15;9.75;;;5.05;;
78873;SDS011;68250;43.514;1.494;2023-07-20T05:15:40;8.93;;;4.90;;
78873;SDS011;68250;43.514;1.494;2023-07-20T05:18:06;10.38;;;5.10;;
78873;SDS011;68250;43.514;1.494;2023-07-20T05:20:31;9.40;;;5.00;;
78873;SDS011;68250;43.514;1.494;2023-07-20T05:22:58;11.15;;;4.97;;
78873;SDS011;68250;43.514;1.494;2023-07-20T05:25:25;10.35;;;5.03;;
78873;SDS011;68250;43.514;1.494;2023-07-20T05:27:51;9.33;;;4.50;;
78873;SDS011;68250;43.514;1.494;2023-07-20T05:30:17;9.18;;;4.70;;
78873;SDS011;68250;43.514;1.494;2023-07-20T05:32:44;9.90;;;4.63;;
78873;SDS011;68250;43.514;1.494;2023-07-20T05:35:19;12.60;;;4.87;;
78873;SDS011;68250;43.514;1.494;2023-07-20T05:37:45;10.38;;;4.95;;
78873;SDS011;68250;43.514;1.494;2023-07-20T05:40:11;9.23;;;4.38;;
78873;SDS011;68250;43.514;1.494;2023-07-20T05:42:38;12.95;;;4.47;;
78873;SDS011;68250;43.514;1.494;2023-07-20T05:45:04;10.63;;;4.50;;
78873;SDS011;68250;43.514;1.494;2023-07-20T05:47:30;10.37;;;4.60;;
78873;SDS011;68250;43.514;1.494;2023-07-20T05:49:56;8.55;;;4.82;;
78873;SDS011;68250;43.514;1.494;2023-07-20T05:52:21;8.20;;;4.50;;
78873;SDS011;68250;43.514;1.494;2023-07-20T05:54:47;10.85;;;4.90;;
78873;SDS011;68250;43.514;1.494;2023-07-20T05:57:13;10.80;;;4.77;;
78873;SDS011;68250;43.514;1.494;2023-07-20T05:59:39;10.48;;;4.40;;
78873;SDS011;68250;43.514;1.494;2023-07-20T06:02:11;11.63;;;4.77;;
78873;SDS011;68250;43.514;1.494;2023-07-20T06:04:37;9.10;;;4.30;;
78873;SDS011;68250;43.514;1.494;2023-07-20T06:07:03;11.73;;;4.70;;
78873;SDS011;68250;43.514;1.494;2023-07-20T06:09:30;7.00;;;3.57;;
78873;SDS011;68250;43.514;1.494;2023-07-20T06:11:55;7.37;;;3.57;;
78873;SDS011;68250;43.514;1.494;2023-07-20T06:14:21;8.52;;;3.65;;
78873;SDS011;68250;43.514;1.494;2023-07-20T06:16:47;8.55;;;3.38;;
78873;SDS011;68250;43.514;1.494;2023-07-20T06:19:13;7.67;;;3.57;;
78873;SDS011;68250;43.514;1.494;2023-07-20T06:21:38;6.97;;;3.40;;
78873;SDS011;68250;43.514;1.494;2023-07-20T06:24:04;8.85;;;3.25;;
78873;SDS011;68250;43.514;1.494;2023-07-20T06:26:30;8.52;;;3.58;;
78873;SDS011;68250;43.514;1.494;2023-07-20T06:28:57;9.45;;;3.30;;
78873;SDS011;68250;43.514;1.494;2023-07-20T06:31:23;8.83;;;3.13;;
78873;SDS011;68250;43.514;1.494;2023-07-20T06:33:48;9.27;;;3.30;;
78873;SDS011;68250;43.514;1.494;2023-07-20T06:36:17;10.00;;;3.38;;
78873;SDS011;68250;43.514;1.494;2023-07-20T06:38:43;9.02;;;3.60;;
78873;SDS011;68250;43.514;1.494;2023-07-20T06:41:08;8.50;;;3.23;;
78873;SDS011;68250;43.514;1.494;2023-07-20T06:43:34;8.37;;;3.97;;
78873;SDS011;68250;43.514;1.494;2023-07-20T06:46:00;11.27;;;3.80;;
78873;SDS011;68250;43.514;1.494;2023-07-20T06:48:26;7.22;;;3.63;;
78873;SDS011;68250;43.514;1.494;2023-07-20T06:50:51;9.07;;;4.00;;
78873;SDS011;68250;43.514;1.494;2023-07-20T06:53:17;7.80;;;3.60;;
78873;SDS011;68250;43.514;1.494;2023-07-20T06:55:43;6.50;;;3.30;;
78873;SDS011;68250;43.514;1.494;2023-07-20T06:58:09;8.97;;;3.63;;
78873;SDS011;68250;43.514;1.494;2023-07-20T07:00:35;9.27;;;3.50;;
78873;SDS011;68250;43.514;1.494;2023-07-20T07:03:01;13.13;;;4.00;;
78873;SDS011;68250;43.514;1.494;2023-07-20T07:05:27;8.90;;;3.23;;
78873;SDS011;68250;43.514;1.494;2023-07-20T07:07:53;8.40;;;2.90;;
78873;SDS011;68250;43.514;1.494;2023-07-20T07:10:19;9.20;;;3.47;;
78873;SDS011;68250;43.514;1.494;2023-07-20T07:12:44;9.38;;;3.60;;
78873;SDS011;68250;43.514;1.494;2023-07-20T07:15:10;9.97;;;3.30;;
78873;SDS011;68250;43.514;1.494;2023-07-20T07:17:36;6.97;;;3.28;;
78873;SDS011;68250;43.514;1.494;2023-07-20T07:20:02;8.30;;;3.27;;
78873;SDS011;68250;43.514;1.494;2023-07-20T07:22:29;8.85;;;3.17;;
78873;SDS011;68250;43.514;1.494;2023-07-20T07:24:55;9.27;;;3.35;;
78873;SDS011;68250;43.514;1.494;2023-07-20T07:27:21;8.90;;;3.50;;
78873;SDS011;68250;43.514;1.494;2023-07-20T07:29:47;7.93;;;3.10;;
78873;SDS011;68250;43.514;1.494;2023-07-20T07:32:13;7.18;;;2.95;;
78873;SDS011;68250;43.514;1.494;2023-07-20T07:34:39;9.07;;;2.90;;
78873;SDS011;68250;43.514;1.494;2023-07-20T07:37:05;6.67;;;3.20;;
78873;SDS011;68250;43.514;1.494;2023-07-20T07:39:31;8.82;;;2.78;;
78873;SDS011;68250;43.514;1.494;2023-07-20T07:41:56;7.63;;;3.10;;
78873;SDS011;68250;43.514;1.494;2023-07-20T07:44:22;7.40;;;3.00;;
78873;SDS011;68250;43.514;1.494;2023-07-20T07:46:49;8.45;;;2.90;;
78873;SDS011;68250;43.514;1.494;2023-07-20T07:49:15;7.87;;;2.97;;
78873;SDS011;68250;43.514;1.494;2023-07-20T07:51:41;7.18;;;2.97;;
78873;SDS011;68250;43.514;1.494;2023-07-20T07:54:07;9.50;;;2.97;;
78873;SDS011;68250;43.514;1.494;2023-07-20T07:56:32;8.90;;;2.93;;
78873;SDS011;68250;43.514;1.494;2023-07-20T07:58:58;5.93;;;2.95;;
78873;SDS011;68250;43.514;1.494;2023-07-20T08:01:24;6.93;;;2.60;;
78873;SDS011;68250;43.514;1.494;2023-07-20T08:03:50;7.28;;;2.95;;
78873;SDS011;68250;43.514;1.494;2023-07-20T08:06:17;5.88;;;2.40;;
78873;SDS011;68250;43.514;1.494;2023-07-20T08:08:42;6.70;;;2.70;;
78873;SDS011;68250;43.514;1.494;2023-07-20T08:11:08;7.03;;;2.57;;
78873;SDS011;68250;43.514;1.494;2023-07-20T08:13:34;7.15;;;2.80;;
78873;SDS011;68250;43.514;1.494;2023-07-20T08:16:00;6.63;;;2.67;;
78873;SDS011;68250;43.514;1.494;2023-07-20T08:18:29;7.90;;;2.90;;
78873;SDS011;68250;43.514;1.494;2023-07-20T08:20:55;11.45;;;2.95;;
78873;SDS011;68250;43.514;1.494;2023-07-20T08:23:21;7.47;;;2.77;;
78873;SDS011;68250;43.514;1.494;2023-07-20T08:25:46;6.47;;;2.23;;
78873;SDS011;68250;43.514;1.494;2023-07-20T08:28:14;6.78;;;2.92;;
78873;SDS011;68250;43.514;1.494;2023-07-20T08:30:41;6.70;;;2.50;;
78873;SDS011;68250;43.514;1.494;2023-07-20T08:33:09;5.77;;;2.70;;
78873;SDS011;68250;43.514;1.494;2023-07-20T08:35:35;7.75;;;2.88;;
78873;SDS011;68250;43.514;1.494;2023-07-20T08:38:01;7.20;;;2.70;;
78873;SDS011;68250;43.514;1.494;2023-07-20T08:40:27;9.37;;;2.60;;
78873;SDS011;68250;43.514;1.494;2023-07-20T08:42:54;5.13;;;2.45;;
78873;SDS011;68250;43.514;1.494;2023-07-20T08:45:20;5.75;;;2.53;;
78873;SDS011;68250;43.514;1.494;2023-07-20T08:47:47;4.93;;;2.28;;
78873;SDS011;68250;43.514;1.494;2023-07-20T08:50:14;6.43;;;2.50;;
78873;SDS011;68250;43.514;1.494;2023-07-20T08:52:40;11.50;;;3.08;;
78873;SDS011;68250;43.514;1.494;2023-07-20T08:55:06;8.77;;;2.80;;
78873;SDS011;68250;43.514;1.494;2023-07-20T08:57:33;7.88;;;2.30;;
78873;SDS011;68250;43.514;1.494;2023-07-20T09:00:02;7.55;;;2.45;;
78873;SDS011;68250;43.514;1.494;2023-07-20T09:02:38;4.70;;;2.20;;
78873;SDS011;68250;43.514;1.494;2023-07-20T09:05:05;6.57;;;2.38;;
78873;SDS011;68250;43.514;1.494;2023-07-20T09:07:33;5.30;;;2.22;;
78873;SDS011;68250;43.514;1.494;2023-07-20T09:10:00;7.03;;;2.80;;
78873;SDS011;68250;43.514;1.494;2023-07-20T09:12:31;7.47;;;2.60;;
78873;SDS011;68250;43.514;1.494;2023-07-20T09:15:06;6.33;;;2.37;;
78873;SDS011;68250;43.514;1.494;2023-07-20T09:17:33;6.32;;;2.38;;
78873;SDS011;68250;43.514;1.494;2023-07-20T09:19:59;6.45;;;2.83;;
78873;SDS011;68250;43.514;1.494;2023-07-20T09:22:30;5.50;;;2.37;;
78873;SDS011;68250;43.514;1.494;2023-07-20T09:24:57;7.45;;;2.50;;
78873;SDS011;68250;43.514;1.494;2023-07-20T09:27:36;7.32;;;2.25;;
78873;SDS011;68250;43.514;1.494;2023-07-20T09:30:06;6.18;;;2.22;;
78873;SDS011;68250;43.514;1.494;2023-07-20T09:32:43;8.20;;;1.98;;
78873;SDS011;68250;43.514;1.494;2023-07-20T09:35:17;6.00;;;2.10;;
78873;SDS011;68250;43.514;1.494;2023-07-20T09:37:47;8.48;;;2.10;;
78873;SDS011;68250;43.514;1.494;2023-07-20T09:40:16;10.25;;;2.08;;
78873;SDS011;68250;43.514;1.494;2023-07-20T09:42:42;3.85;;;1.98;;
78873;SDS011;68250;43.514;1.494;2023-07-20T09:45:09;5.68;;;1.90;;
78873;SDS011;68250;43.514;1.494;2023-07-20T09:47:38;8.30;;;2.33;;
78873;SDS011;68250;43.514;1.494;2023-07-20T09:50:05;4.88;;;2.10;;
78873;SDS011;68250;43.514;1.494;2023-07-20T09:52:39;6.75;;;2.05;;
78873;SDS011;68250;43.514;1.494;2023-07-20T09:55:08;5.05;;;1.65;;
78873;SDS011;68250;43.514;1.494;2023-07-20T09:57:34;4.70;;;1.90;;
78873;SDS011;68250;43.514;1.494;2023-07-20T10:00:02;4.37;;;2.20;;
78873;SDS011;68250;43.514;1.494;2023-07-20T10:02:41;6.72;;;2.10;;
78873;SDS011;68250;43.514;1.494;2023-07-20T10:05:12;5.65;;;2.00;;
78873;SDS011;68250;43.514;1.494;2023-07-20T10:07:48;5.93;;;2.47;;
78873;SDS011;68250;43.514;1.494;2023-07-20T10:10:15;5.97;;;2.50;;
78873;SDS011;68250;43.514;1.494;2023-07-20T10:12:42;8.47;;;2.70;;
78873;SDS011;68250;43.514;1.494;2023-07-20T10:15:13;6.05;;;1.90;;
78873;SDS011;68250;43.514;1.494;2023-07-20T10:18:12;5.25;;;2.08;;
78873;SDS011;68250;43.514;1.494;2023-07-20T10:20:43;3.97;;;1.98;;
78873;SDS011;68250;43.514;1.494;2023-07-20T10:23:10;7.00;;;2.22;;
78873;SDS011;68250;43.514;1.494;2023-07-20T10:25:36;6.80;;;2.30;;
78873;SDS011;68250;43.514;1.494;2023-07-20T10:28:04;7.38;;;2.10;;
78873;SDS011;68250;43.514;1.494;2023-07-20T10:30:31;6.70;;;2.10;;
78873;SDS011;68250;43.514;1.494;2023-07-20T10:32:57;5.82;;;2.20;;
78873;SDS011;68250;43.514;1.494;2023-07-20T10:35:28;7.05;;;1.75;;
78873;SDS011;68250;43.514;1.494;2023-07-20T10:37:54;6.37;;;2.20;;
78873;SDS011;68250;43.514;1.494;2023-07-20T10:40:28;6.60;;;2.05;;
78873;SDS011;68250;43.514;1.494;2023-07-20T10:43:02;5.30;;;2.28;;
78873;SDS011;68250;43.514;1.494;2023-07-20T10:45:33;8.18;;;2.10;;
78873;SDS011;68250;43.514;1.494;2023-07-20T10:48:03;7.53;;;2.20;;
78873;SDS011;68250;43.514;1.494;2023-07-20T10:50:30;7.00;;;2.20;;
78873;SDS011;68250;43.514;1.494;2023-07-20T10:53:11;6.25;;;2.10;;
78873;SDS011;68250;43.514;1.494;2023-07-20T10:55:39;7.78;;;2.35;;
78873;SDS011;68250;43.514;1.494;2023-07-20T10:58:14;20.00;;;2.40;;
78873;SDS011;68250;43.514;1.494;2023-07-20T11:03:42;5.03;;;2.08;;
78873;SDS011;68250;43.514;1.494;2023-07-20T11:08:56;8.40;;;2.50;;
78873;SDS011;68250;43.514;1.494;2023-07-20T11:11:29;8.47;;;2.43;;
78873;SDS011;68250;43.514;1.494;2023-07-20T11:14:05;6.95;;;2.50;;
78873;SDS011;68250;43.514;1.494;2023-07-20T11:16:36;7.07;;;2.50;;
78873;SDS011;68250;43.514;1.494;2023-07-20T11:19:12;7.30;;;2.17;;
78873;SDS011;68250;43.514;1.494;2023-07-20T11:21:42;5.20;;;2.75;;
78873;SDS011;68250;43.514;1.494;2023-07-20T11:24:09;7.10;;;2.17;;
78873;SDS011;68250;43.514;1.494;2023-07-20T11:26:55;6.18;;;2.20;;
78873;SDS011;68250;43.514;1.494;2023-07-20T11:29:21;6.47;;;2.30;;
78873;SDS011;68250;43.514;1.494;2023-07-20T11:31:48;6.03;;;2.40;;
78873;SDS011;68250;43.514;1.494;2023-07-20T11:34:15;6.38;;;2.20;;
78873;SDS011;68250;43.514;1.494;2023-07-20T11:36:45;6.00;;;2.87;;
78873;SDS011;68250;43.514;1.494;2023-07-20T11:39:13;9.60;;;2.17;;
78873;SDS011;68250;43.514;1.494;2023-07-20T11:41:43;7.45;;;2.35;;
78873;SDS011;68250;43.514;1.494;2023-07-20T11:44:11;6.95;;;2.63;;
78873;SDS011;68250;43.514;1.494;2023-07-20T11:46:40;4.68;;;2.33;;
78873;SDS011;68250;43.514;1.494;2023-07-20T11:49:07;6.50;;;2.70;;
78873;SDS011;68250;43.514;1.494;2023-07-20T11:51:34;7.18;;;2.58;;
78873;SDS011;68250;43.514;1.494;2023-07-20T11:54:00;6.53;;;2.00;;
78873;SDS011;68250;43.514;1.494;2023-07-20T11:56:27;6.63;;;2.47;;
78873;SDS011;68250;43.514;1.494;2023-07-20T11:58:55;8.97;;;2.30;;
78873;SDS011;68250;43.514;1.494;2023-07-20T12:01:24;6.57;;;2.42;;
78873;SDS011;68250;43.514;1.494;2023-07-20T12:03:53;6.80;;;2.22;;
78873;SDS011;68250;43.514;1.494;2023-07-20T12:06:23;5.15;;;2.30;;
78873;SDS011;68250;43.514;1.494;2023-07-20T12:08:50;6.97;;;2.40;;
78873;SDS011;68250;43.514;1.494;2023-07-20T12:11:32;6.43;;;2.80;;
78873;SDS011;68250;43.514;1.494;2023-07-20T12:13:59;5.60;;;2.58;;
78873;SDS011;68250;43.514;1.494;2023-07-20T12:16:28;5.95;;;2.40;;
78873;SDS011;68250;43.514;1.494;2023-07-20T12:19:07;11.63;;;2.67;;
78873;SDS011;68250;43.514;1.494;2023-07-20T12:21:35;6.90;;;2.40;;
78873;SDS011;68250;43.514;1.494;2023-07-20T12:24:02;7.33;;;2.40;;
78873;SDS011;68250;43.514;1.494;2023-07-20T12:26:29;5.97;;;2.60;;
78873;SDS011;68250;43.514;1.494;2023-07-20T12:28:55;4.88;;;2.35;;
78873;SDS011;68250;43.514;1.494;2023-07-20T12:31:21;6.13;;;2.80;;
78873;SDS011;68250;43.514;1.494;2023-07-20T12:33:48;5.72;;;2.30;;
78873;SDS011;68250;43.514;1.494;2023-07-20T12:36:14;5.43;;;2.47;;
78873;SDS011;68250;43.514;1.494;2023-07-20T12:38:40;5.60;;;2.67;;
78873;SDS011;68250;43.514;1.494;2023-07-20T12:41:07;8.55;;;2.65;;
78873;SDS011;68250;43.514;1.494;2023-07-20T12:43:33;5.67;;;2.80;;
78873;SDS011;68250;43.514;1.494;2023-07-20T12:45:59;6.90;;;2.28;;
78873;SDS011;68250;43.514;1.494;2023-07-20T12:48:25;7.00;;;2.78;;
78873;SDS011;68250;43.514;1.494;2023-07-20T12:50:50;9.07;;;2.90;;
78873;SDS011;68250;43.514;1.494;2023-07-20T12:53:16;5.68;;;2.70;;
78873;SDS011;68250;43.514;1.494;2023-07-20T12:55:42;7.47;;;2.80;;
78873;SDS011;68250;43.514;1.494;2023-07-20T12:58:08;5.80;;;2.35;;
78873;SDS011;68250;43.514;1.494;2023-07-20T13:00:34;6.97;;;2.30;;
78873;SDS011;68250;43.514;1.494;2023-07-20T13:02:59;7.07;;;2.30;;
78873;SDS011;68250;43.514;1.494;2023-07-20T13:05:29;4.05;;;2.30;;
78873;SDS011;68250;43.514;1.494;2023-07-20T13:07:56;6.25;;;2.53;;
78873;SDS011;68250;43.514;1.494;2023-07-20T13:10:23;4.40;;;2.35;;
78873;SDS011;68250;43.514;1.494;2023-07-20T13:12:49;4.97;;;2.17;;
78873;SDS011;68250;43.514;1.494;2023-07-20T13:15:14;6.23;;;2.47;;
78873;SDS011;68250;43.514;1.494;2023-07-20T13:17:40;4.72;;;2.00;;
78873;SDS011;68250;43.514;1.494;2023-07-20T13:20:06;4.33;;;2.53;;
78873;SDS011;68250;43.514;1.494;2023-07-20T13:22:35;7.70;;;2.40;;
78873;SDS011;68250;43.514;1.494;2023-07-20T13:25:01;8.18;;;2.33;;
78873;SDS011;68250;43.514;1.494;2023-07-20T13:27:27;7.53;;;2.30;;
78873;SDS011;68250;43.514;1.494;2023-07-20T13:29:53;6.23;;;2.77;;
78873;SDS011;68250;43.514;1.494;2023-07-20T13:32:19;8.90;;;2.80;;
78873;SDS011;68250;43.514;1.494;2023-07-20T13:34:44;5.82;;;2.78;;
78873;SDS011;68250;43.514;1.494;2023-07-20T13:37:10;6.97;;;2.43;;
78873;SDS011;68250;43.514;1.494;2023-07-20T13:39:36;7.78;;;2.67;;
78873;SDS011;68250;43.514;1.494;2023-07-20T13:42:03;7.95;;;2.42;;
78873;SDS011;68250;43.514;1.494;2023-07-20T13:44:33;5.63;;;2.70;;
78873;SDS011;68250;43.514;1.494;2023-07-20T13:46:59;6.40;;;2.45;;
78873;SDS011;68250;43.514;1.494;2023-07-20T13:49:25;8.40;;;2.47;;
78873;SDS011;68250;43.514;1.494;2023-07-20T13:51:50;5.77;;;2.30;;
78873;SDS011;68250;43.514;1.494;2023-07-20T13:54:16;6.60;;;2.50;;
78873;SDS011;68250;43.514;1.494;2023-07-20T13:56:42;4.50;;;2.43;;
78873;SDS011;68250;43.514;1.494;2023-07-20T13:59:07;6.10;;;2.47;;
78873;SDS011;68250;43.514;1.494;2023-07-20T14:01:33;6.53;;;2.40;;
78873;SDS011;68250;43.514;1.494;2023-07-20T14:04:00;7.05;;;2.40;;
78873;SDS011;68250;43.514;1.494;2023-07-20T14:06:29;6.00;;;2.70;;
78873;SDS011;68250;43.514;1.494;2023-07-20T14:08:55;8.70;;;2.70;;
78873;SDS011;68250;43.514;1.494;2023-07-20T14:11:20;5.97;;;2.38;;
78873;SDS011;68250;43.514;1.494;2023-07-20T14:13:46;7.80;;;2.40;;
78873;SDS011;68250;43.514;1.494;2023-07-20T14:16:12;7.05;;;2.50;;
78873;SDS011;68250;43.514;1.494;2023-07-20T14:18:37;7.23;;;2.10;;
78873;SDS011;68250;43.514;1.494;2023-07-20T14:21:03;6.57;;;2.80;;
78873;SDS011;68250;43.514;1.494;2023-07-20T14:23:30;4.97;;;2.47;;
78873;SDS011;68250;43.514;1.494;2023-07-20T14:25:55;6.70;;;2.40;;
78873;SDS011;68250;43.514;1.494;2023-07-20T14:28:21;9.60;;;2.70;;
78873;SDS011;68250;43.514;1.494;2023-07-20T14:30:47;8.05;;;2.40;;
78873;SDS011;68250;43.514;1.494;2023-07-20T14:33:12;8.83;;;2.87;;
78873;SDS011;68250;43.514;1.494;2023-07-20T14:35:38;7.32;;;3.00;;
78873;SDS011;68250;43.514;1.494;2023-07-20T14:38:03;4.87;;;2.60;;
78873;SDS011;68250;43.514;1.494;2023-07-20T14:40:29;5.95;;;2.55;;
78873;SDS011;68250;43.514;1.494;2023-07-20T14:42:58;5.33;;;2.30;;
78873;SDS011;68250;43.514;1.494;2023-07-20T14:45:26;4.78;;;2.50;;
78873;SDS011;68250;43.514;1.494;2023-07-20T14:47:52;8.55;;;2.75;;
78873;SDS011;68250;43.514;1.494;2023-07-20T14:50:22;9.52;;;2.70;;
78873;SDS011;68250;43.514;1.494;2023-07-20T14:52:48;7.60;;;2.53;;
78873;SDS011;68250;43.514;1.494;2023-07-20T14:55:14;7.78;;;2.95;;
78873;SDS011;68250;43.514;1.494;2023-07-20T14:57:39;5.22;;;2.90;;
78873;SDS011;68250;43.514;1.494;2023-07-20T15:00:05;5.67;;;2.67;;
78873;SDS011;68250;43.514;1.494;2023-07-20T15:02:38;5.80;;;2.40;;
78873;SDS011;68250;43.514;1.494;2023-07-20T15:05:07;4.03;;;2.10;;
78873;SDS011;68250;43.514;1.494;2023-07-20T15:07:33;4.95;;;2.33;;